createdAt,value
2018-05-07T00:00:59.726Z,5.7
2018-05-07T00:02:01.347Z,6.8
2018-05-07T00:03:03.013Z,5.0
2018-05-07T00:04:04.656Z,7.5
2018-05-07T00:05:06.300Z,4.9
2018-05-07T00:06:08.046Z,9.2
2018-05-07T00:07:09.551Z,5.2
2018-05-07T00:08:11.206Z,8.7
2018-05-07T00:09:12.872Z,6.6
2018-05-07T00:10:14.502Z,7.0
2018-05-07T00:11:16.154Z,7.3
2018-05-07T00:12:17.806Z,6.6
2018-05-07T00:13:19.573Z,7.7
2018-05-07T00:14:21.079Z,6.9
2018-05-07T00:15:22.726Z,9.3
2018-05-07T00:16:24.370Z,4.7
2018-05-07T00:17:26.015Z,6.6
2018-05-07T00:18:27.669Z,6.7
2018-05-07T00:19:29.309Z,6.2
2018-05-07T00:20:30.980Z,7.4
2018-05-07T00:21:32.599Z,6.1
2018-05-07T00:22:34.324Z,6.6
2018-05-07T00:23:35.888Z,6.4
2018-05-07T00:24:37.533Z,6.9
2018-05-07T00:25:39.184Z,8.7
2018-05-07T00:26:40.878Z,7.0
2018-05-07T00:27:42.495Z,7.3
2018-05-07T00:28:44.134Z,5.0
2018-05-07T00:29:45.783Z,6.4
2018-05-07T00:30:47.457Z,5.0
2018-05-07T00:31:49.108Z,9.2
2018-05-07T00:32:50.761Z,5.6
2018-05-07T00:33:52.402Z,6.7
2018-05-07T00:34:54.049Z,6.0
2018-05-07T00:35:55.696Z,6.2
2018-05-07T00:36:57.340Z,6.1
2018-05-07T00:37:58.993Z,6.8
2018-05-07T00:39:00.636Z,5.7
2018-05-07T00:40:02.294Z,7.0
2018-05-07T00:41:03.945Z,7.2
2018-05-07T00:42:05.594Z,6.9
2018-05-07T00:43:07.307Z,8.1
2018-05-07T00:44:08.958Z,8.0
2018-05-07T00:45:10.606Z,5.8
2018-05-07T00:46:12.255Z,7.4
2018-05-07T00:47:13.899Z,5.1
2018-05-07T00:48:15.624Z,6.6
2018-05-07T00:49:17.158Z,8.5
2018-05-07T00:50:18.805Z,5.2
2018-05-07T00:51:20.445Z,7.7
2018-05-07T00:52:22.093Z,5.3
2018-05-07T00:53:23.739Z,7.5
2018-05-07T00:54:25.380Z,6.6
2018-05-07T00:55:27.035Z,7.2
2018-05-07T00:56:28.679Z,7.7
2018-05-07T00:57:30.323Z,6.8
2018-05-07T00:58:31.980Z,7.1
2018-05-07T00:59:33.630Z,8.3
2018-05-07T01:00:35.280Z,11.3
2018-05-07T01:01:36.928Z,6.3
2018-05-07T01:02:38.582Z,5.5
2018-05-07T01:03:40.214Z,6.3
2018-05-07T01:04:41.867Z,6.2
2018-05-07T01:05:43.501Z,5.3
2018-05-07T01:06:45.148Z,5.4
2018-05-07T01:07:46.793Z,5.8
2018-05-07T01:08:48.442Z,9.3
2018-05-07T01:09:50.112Z,7.1
2018-05-07T01:10:51.749Z,9.5
2018-05-07T01:11:53.404Z,12.9
2018-05-07T01:12:55.051Z,8.3
2018-05-07T01:13:56.687Z,9.9
2018-05-07T01:14:58.346Z,7.1
2018-05-07T01:15:59.999Z,7.1
2018-05-07T01:17:01.652Z,5.5
2018-05-07T01:18:03.298Z,6.6
2018-05-07T01:19:04.938Z,8.7
2018-05-07T01:20:06.586Z,10.1
2018-05-07T01:21:08.226Z,6.9
2018-05-07T01:22:09.879Z,6.8
2018-05-07T01:23:11.530Z,6.3
2018-05-07T01:24:13.177Z,6.4
2018-05-07T01:25:14.825Z,7.7
2018-05-07T01:26:16.478Z,6.5
2018-05-07T01:27:18.120Z,5.0
2018-05-07T01:28:19.766Z,6.5
2018-05-07T01:29:21.411Z,6.1
2018-05-07T01:30:23.051Z,5.7
2018-05-07T01:31:24.697Z,6.7
2018-05-07T01:32:26.356Z,7.6
2018-05-07T01:33:28.011Z,5.2
2018-05-07T01:34:29.651Z,5.8
2018-05-07T01:35:31.293Z,7.1
2018-05-07T01:36:32.941Z,9.4
2018-05-07T01:37:34.606Z,9.8
2018-05-07T01:38:36.263Z,9.2
2018-05-07T01:39:37.899Z,10.7
2018-05-07T01:40:39.543Z,7.0
2018-05-07T01:41:41.192Z,10.4
2018-05-07T01:42:42.832Z,8.6
2018-05-07T01:43:44.485Z,5.9
2018-05-07T01:44:46.132Z,6.2
2018-05-07T01:45:47.806Z,5.1
2018-05-07T01:46:49.454Z,6.8
2018-05-07T01:47:51.095Z,7.3
2018-05-07T01:48:52.744Z,10.1
2018-05-07T01:49:54.388Z,6.8
2018-05-07T01:50:56.042Z,9.2
2018-05-07T01:51:57.678Z,7.6
2018-05-07T01:52:59.323Z,11.3
2018-05-07T01:54:00.966Z,9.6
2018-05-07T01:55:02.613Z,13.2
2018-05-07T01:56:04.258Z,9.5
2018-05-07T02:02:00.260Z,5.6
2018-05-07T02:03:01.902Z,6.3
2018-05-07T02:04:53.809Z,7.8
2018-05-07T02:05:55.451Z,6.6
2018-05-07T02:06:57.091Z,10.0
2018-05-07T02:07:58.743Z,5.4
2018-05-07T02:09:00.391Z,9.2
2018-05-07T02:10:02.033Z,10.7
2018-05-07T02:11:03.693Z,12.2
2018-05-07T02:12:05.339Z,9.3
2018-05-07T02:13:06.992Z,9.9
2018-05-07T02:14:08.650Z,12.5
2018-05-07T02:15:10.293Z,14.6
2018-05-07T02:16:11.948Z,15.9
2018-05-07T02:17:13.595Z,11.3
2018-05-07T02:18:15.247Z,9.6
2018-05-07T02:19:16.882Z,8.9
2018-05-07T02:20:18.527Z,9.0
2018-05-07T02:21:20.176Z,6.7
2018-05-07T02:22:21.814Z,8.9
2018-05-07T02:23:23.452Z,8.0
2018-05-07T02:24:25.103Z,7.3
2018-05-07T02:25:26.753Z,7.3
2018-05-07T02:26:28.403Z,7.2
2018-05-07T02:27:30.046Z,10.1
2018-05-07T02:28:31.685Z,8.5
2018-05-07T02:29:33.332Z,7.5
2018-05-07T02:30:34.975Z,8.0
2018-05-07T02:31:36.625Z,8.9
2018-05-07T02:32:38.273Z,8.5
2018-05-07T02:33:39.926Z,6.2
2018-05-07T02:34:41.574Z,11.3
2018-05-07T02:35:43.225Z,6.2
2018-05-07T02:36:44.864Z,11.1
2018-05-07T02:37:46.511Z,6.8
2018-05-07T02:38:48.155Z,10.6
2018-05-07T02:39:49.812Z,8.6
2018-05-07T02:40:51.475Z,7.7
2018-05-07T02:41:53.120Z,7.1
2018-05-07T02:42:54.762Z,7.7
2018-05-07T02:43:56.410Z,6.3
2018-05-07T02:44:58.061Z,5.9
2018-05-07T02:45:59.711Z,8.1
2018-05-07T02:47:01.363Z,6.8
2018-05-07T02:48:03.015Z,9.4
2018-05-07T02:49:04.654Z,6.6
2018-05-07T02:50:06.303Z,18.5
2018-05-07T02:51:07.952Z,8.9
2018-05-07T02:52:09.603Z,8.9
2018-05-07T02:53:11.256Z,10.8
2018-05-07T02:54:12.906Z,7.9
2018-05-07T02:55:14.551Z,7.5
2018-05-07T02:56:16.193Z,9.9
2018-05-07T02:57:17.835Z,9.5
2018-05-07T02:58:19.495Z,8.1
2018-05-07T02:59:21.151Z,11.5
2018-05-07T03:00:22.800Z,8.6
2018-05-07T03:01:24.446Z,8.2
2018-05-07T03:02:26.096Z,9.0
2018-05-07T03:03:27.737Z,9.1
2018-05-07T03:04:29.384Z,8.2
2018-05-07T03:05:31.036Z,8.5
2018-05-07T03:06:32.681Z,6.3
2018-05-07T03:07:34.324Z,8.2
2018-05-07T03:08:35.977Z,8.5
2018-05-07T03:09:37.635Z,6.7
2018-05-07T03:10:39.275Z,9.8
2018-05-07T03:11:40.921Z,8.4
2018-05-07T03:12:42.581Z,9.5
2018-05-07T03:13:44.215Z,9.3
2018-05-07T03:14:45.861Z,8.1
2018-05-07T03:15:47.533Z,8.3
2018-05-07T03:16:49.182Z,6.7
2018-05-07T03:17:50.835Z,10.3
2018-05-07T03:18:52.479Z,8.7
2018-05-07T03:19:54.173Z,7.8
2018-05-07T03:20:55.818Z,7.5
2018-05-07T03:21:57.469Z,7.4
2018-05-07T03:22:59.122Z,7.3
2018-05-07T03:24:00.773Z,10.3
2018-05-07T03:25:02.421Z,8.7
2018-05-07T03:26:04.072Z,7.3
2018-05-07T03:27:05.715Z,8.8
2018-05-07T03:28:07.368Z,10.0
2018-05-07T03:29:09.010Z,9.0
2018-05-07T03:30:10.668Z,8.1
2018-05-07T03:31:12.315Z,7.7
2018-05-07T03:32:13.953Z,8.7
2018-05-07T03:33:15.609Z,10.4
2018-05-07T03:34:17.257Z,8.6
2018-05-07T03:35:18.907Z,9.5
2018-05-07T03:36:20.596Z,7.2
2018-05-07T03:37:22.237Z,9.5
2018-05-07T03:38:23.889Z,15.7
2018-05-07T03:39:25.541Z,8.6
2018-05-07T03:40:27.200Z,12.5
2018-05-07T03:41:28.834Z,9.3
2018-05-07T03:42:30.483Z,10.0
2018-05-07T03:43:32.131Z,10.1
2018-05-07T03:44:33.784Z,7.8
2018-05-07T03:45:35.439Z,10.5
2018-05-07T03:46:37.088Z,8.1
2018-05-07T03:47:38.735Z,8.0
2018-05-07T03:48:40.436Z,8.6
2018-05-07T03:49:41.989Z,9.5
2018-05-07T03:50:43.648Z,9.4
2018-05-07T03:51:45.302Z,8.6
2018-05-07T03:52:46.964Z,10.2
2018-05-07T03:53:48.603Z,11.7
2018-05-07T03:54:50.248Z,9.3
2018-05-07T03:55:51.887Z,10.9
2018-05-07T03:56:53.590Z,11.6
2018-05-07T03:57:55.243Z,9.2
2018-05-07T03:58:56.897Z,9.8
2018-05-07T03:59:58.540Z,12.9
2018-05-07T04:01:00.202Z,20.2
2018-05-07T04:02:01.841Z,9.5
2018-05-07T04:03:03.493Z,9.0
2018-05-07T04:04:05.139Z,8.2
2018-05-07T04:05:06.782Z,9.1
2018-05-07T04:06:08.438Z,7.3
2018-05-07T04:07:10.085Z,8.7
2018-05-07T04:08:11.731Z,9.2
2018-05-07T04:09:13.385Z,10.2
2018-05-07T04:10:15.038Z,9.4
2018-05-07T04:11:16.691Z,7.5
2018-05-07T04:12:18.339Z,7.6
2018-05-07T04:13:20.025Z,11.0
2018-05-07T04:14:21.642Z,10.0
2018-05-07T04:15:23.297Z,6.9
2018-05-07T04:16:24.942Z,9.8
2018-05-07T04:17:26.600Z,9.3
2018-05-07T04:18:28.245Z,10.6
2018-05-07T04:19:29.899Z,10.0
2018-05-07T04:20:31.552Z,10.4
2018-05-07T04:21:33.203Z,6.6
2018-05-07T04:22:34.858Z,7.2
2018-05-07T04:23:36.518Z,9.3
2018-05-07T04:24:38.167Z,10.8
2018-05-07T04:25:39.862Z,9.6
2018-05-07T04:26:41.511Z,8.8
2018-05-07T04:27:43.167Z,8.2
2018-05-07T04:28:44.811Z,7.8
2018-05-07T04:29:46.467Z,11.1
2018-05-07T04:30:48.118Z,9.3
2018-05-07T04:31:49.764Z,13.8
2018-05-07T04:32:51.417Z,10.5
2018-05-07T04:33:53.065Z,10.8
2018-05-07T04:34:54.725Z,10.9
2018-05-07T04:35:56.380Z,7.6
2018-05-07T04:36:58.032Z,8.0
2018-05-07T04:37:59.677Z,6.8
2018-05-07T04:39:01.423Z,8.1
2018-05-07T04:40:03.045Z,7.6
2018-05-07T04:41:04.698Z,7.0
2018-05-07T04:42:06.350Z,8.4
2018-05-07T04:43:08.021Z,8.1
2018-05-07T04:44:09.656Z,7.4
2018-05-07T04:45:11.319Z,9.3
2018-05-07T04:46:12.975Z,8.8
2018-05-07T04:47:14.627Z,9.7
2018-05-07T04:48:16.280Z,13.5
2018-05-07T04:49:17.935Z,13.3
2018-05-07T04:50:19.586Z,7.5
2018-05-07T04:51:21.232Z,10.8
2018-05-07T04:52:22.892Z,11.8
2018-05-07T04:53:24.544Z,10.3
2018-05-07T04:54:26.204Z,8.5
2018-05-07T04:55:27.936Z,7.3
2018-05-07T04:56:29.514Z,10.0
2018-05-07T04:57:31.170Z,10.3
2018-05-07T04:58:32.823Z,10.0
2018-05-07T04:59:34.465Z,8.2
2018-05-07T05:00:36.124Z,6.9
2018-05-07T05:01:37.779Z,13.7
2018-05-07T05:02:39.427Z,9.8
2018-05-07T05:03:41.113Z,11.8
2018-05-07T05:04:42.771Z,8.0
2018-05-07T05:05:44.440Z,9.3
2018-05-07T05:06:46.086Z,6.9
2018-05-07T05:07:47.775Z,10.4
2018-05-07T05:08:49.430Z,8.4
2018-05-07T05:09:51.091Z,7.4
2018-05-07T05:10:52.746Z,6.3
2018-05-07T05:11:54.403Z,7.7
2018-05-07T05:12:56.064Z,9.1
2018-05-07T05:13:57.719Z,8.4
2018-05-07T05:14:59.380Z,7.6
2018-05-07T05:16:01.049Z,6.5
2018-05-07T05:17:02.721Z,9.9
2018-05-07T05:18:04.372Z,6.4
2018-05-07T05:19:06.042Z,7.5
2018-05-07T05:20:07.714Z,8.9
2018-05-07T05:21:09.533Z,8.4
2018-05-07T05:22:11.024Z,8.6
2018-05-07T05:23:12.680Z,9.1
2018-05-07T05:24:14.335Z,12.3
2018-05-07T05:25:16.004Z,11.7
2018-05-07T05:26:17.663Z,12.3
2018-05-07T05:27:19.361Z,6.9
2018-05-07T05:28:20.993Z,9.4
2018-05-07T05:29:22.651Z,11.8
2018-05-07T05:30:24.320Z,7.7
2018-05-07T05:31:26.011Z,7.5
2018-05-07T05:32:27.678Z,8.9
2018-05-07T05:33:29.338Z,7.4
2018-05-07T05:34:30.994Z,7.3
2018-05-07T05:35:32.658Z,8.5
2018-05-07T05:36:34.323Z,11.0
2018-05-07T05:37:35.980Z,12.4
2018-05-07T05:38:37.641Z,6.9
2018-05-07T05:39:39.301Z,8.6
2018-05-07T05:40:40.960Z,6.3
2018-05-07T05:41:42.628Z,11.3
2018-05-07T05:42:44.292Z,7.0
2018-05-07T05:43:46.002Z,9.5
2018-05-07T05:44:47.651Z,10.9
2018-05-07T05:45:49.314Z,9.2
2018-05-07T05:46:50.979Z,6.8
2018-05-07T05:47:52.648Z,6.0
2018-05-07T05:48:54.306Z,8.4
2018-05-07T05:49:56.042Z,6.3
2018-05-07T05:50:57.639Z,7.3
2018-05-07T05:51:59.329Z,7.1
2018-05-07T05:53:00.982Z,8.6
2018-05-07T05:54:02.639Z,5.2
2018-05-07T05:55:04.299Z,8.9
2018-05-07T06:01:39.296Z,7.3
2018-05-07T06:02:40.952Z,12.9
2018-05-07T06:04:32.877Z,5.5
2018-05-07T06:05:34.539Z,8.0
2018-05-07T06:06:36.214Z,6.5
2018-05-07T06:07:37.869Z,8.4
2018-05-07T06:08:39.532Z,11.1
2018-05-07T06:09:41.192Z,9.8
2018-05-07T06:10:42.875Z,6.5
2018-05-07T06:11:44.527Z,7.4
2018-05-07T06:12:46.185Z,8.8
2018-05-07T06:13:47.882Z,5.8
2018-05-07T06:14:49.672Z,8.7
2018-05-07T06:15:51.211Z,6.9
2018-05-07T06:16:52.868Z,7.6
2018-05-07T06:17:54.537Z,9.6
2018-05-07T06:18:56.211Z,12.8
2018-05-07T06:19:57.880Z,8.8
2018-05-07T06:20:59.543Z,8.0
2018-05-07T06:22:01.209Z,5.9
2018-05-07T06:23:02.871Z,7.3
2018-05-07T06:24:04.541Z,6.1
2018-05-07T06:25:06.204Z,6.3
2018-05-07T06:26:07.865Z,6.1
2018-05-07T06:27:09.541Z,8.0
2018-05-07T06:28:11.213Z,6.6
2018-05-07T06:29:12.875Z,5.5
2018-05-07T06:30:14.554Z,8.0
2018-05-07T06:31:16.223Z,5.1
2018-05-07T06:32:17.883Z,5.9
2018-05-07T06:33:19.552Z,4.2
2018-05-07T06:34:21.236Z,7.0
2018-05-07T06:35:22.881Z,7.0
2018-05-07T06:36:24.548Z,6.0
2018-05-07T06:37:26.209Z,6.5
2018-05-07T06:38:27.893Z,7.3
2018-05-07T06:39:29.566Z,6.9
2018-05-07T06:40:31.237Z,8.3
2018-05-07T06:41:32.901Z,6.3
2018-05-07T06:42:34.568Z,5.8
2018-05-07T06:43:36.248Z,5.3
2018-05-07T06:44:37.932Z,5.9
2018-05-07T06:45:39.655Z,7.3
2018-05-07T06:46:41.265Z,7.9
2018-05-07T06:47:42.930Z,5.7
2018-05-07T06:48:44.610Z,8.1
2018-05-07T06:49:46.281Z,7.5
2018-05-07T06:50:47.947Z,8.1
2018-05-07T06:51:49.620Z,4.6
2018-05-07T06:52:51.287Z,5.7
2018-05-07T06:53:52.964Z,4.8
2018-05-07T06:54:54.625Z,7.8
2018-05-07T06:55:56.293Z,6.9
2018-05-07T06:56:57.954Z,7.4
2018-05-07T06:57:59.627Z,4.5
2018-05-07T06:59:01.295Z,5.6
2018-05-07T07:00:02.960Z,4.4
2018-05-07T07:01:04.630Z,6.4
2018-05-07T07:02:06.336Z,5.9
2018-05-07T07:03:07.964Z,5.7
2018-05-07T07:04:09.638Z,4.6
2018-05-07T07:05:11.313Z,5.0
2018-05-07T07:06:12.982Z,7.5
2018-05-07T07:07:14.645Z,4.6
2018-05-07T07:08:16.364Z,6.2
2018-05-07T07:09:17.987Z,6.8
2018-05-07T07:10:19.706Z,4.8
2018-05-07T07:11:21.394Z,4.3
2018-05-07T07:12:23.069Z,4.9
2018-05-07T07:13:24.742Z,5.2
2018-05-07T07:14:26.418Z,5.1
2018-05-07T07:15:28.088Z,5.7
2018-05-07T07:16:29.769Z,5.9
2018-05-07T07:17:31.425Z,4.9
2018-05-07T07:18:33.083Z,4.1
2018-05-07T07:19:34.765Z,5.0
2018-05-07T07:20:36.434Z,4.6
2018-05-07T07:21:38.104Z,4.4
2018-05-07T07:22:39.775Z,3.6
2018-05-07T07:23:41.447Z,5.9
2018-05-07T07:24:43.123Z,5.2
2018-05-07T07:25:44.793Z,4.1
2018-05-07T07:26:46.468Z,4.6
2018-05-07T07:27:48.134Z,3.9
2018-05-07T07:28:49.810Z,4.2
2018-05-07T07:29:51.487Z,5.0
2018-05-07T07:30:53.184Z,5.2
2018-05-07T07:31:54.853Z,4.6
2018-05-07T07:32:56.513Z,5.3
2018-05-07T07:33:58.222Z,3.9
2018-05-07T07:34:59.866Z,4.2
2018-05-07T07:36:01.535Z,4.3
2018-05-07T07:37:03.207Z,8.2
2018-05-07T07:38:04.872Z,5.3
2018-05-07T07:39:06.542Z,3.4
2018-05-07T07:40:08.206Z,4.7
2018-05-07T07:41:09.908Z,5.0
2018-05-07T07:42:11.592Z,6.7
2018-05-07T07:43:13.262Z,5.3
2018-05-07T07:44:14.929Z,5.5
2018-05-07T07:45:16.602Z,3.5
2018-05-07T07:46:18.269Z,4.7
2018-05-07T07:47:19.953Z,6.6
2018-05-07T07:48:21.564Z,6.0
2018-05-07T07:49:23.245Z,6.2
2018-05-07T07:50:24.911Z,7.3
2018-05-07T07:51:26.677Z,5.6
2018-05-07T07:52:28.291Z,4.4
2018-05-07T07:53:29.985Z,3.8
2018-05-07T07:54:31.590Z,4.8
2018-05-07T07:55:33.266Z,5.3
2018-05-07T07:56:34.951Z,4.3
2018-05-07T07:57:36.623Z,7.9
2018-05-07T07:58:38.300Z,8.1
2018-05-07T07:59:39.989Z,5.7
2018-05-07T08:00:41.670Z,7.1
2018-05-07T08:01:43.410Z,4.7
2018-05-07T08:02:45.030Z,5.1
2018-05-07T08:03:46.701Z,3.3
2018-05-07T08:04:48.378Z,6.1
2018-05-07T08:05:50.076Z,6.5
2018-05-07T08:06:51.749Z,5.1
2018-05-07T08:07:53.425Z,5.7
2018-05-07T08:08:55.093Z,7.4
2018-05-07T08:09:56.762Z,4.5
2018-05-07T08:10:58.441Z,4.9
2018-05-07T08:12:00.143Z,5.3
2018-05-07T08:13:01.806Z,5.1
2018-05-07T08:14:03.499Z,5.5
2018-05-07T08:15:05.176Z,6.2
2018-05-07T08:16:06.854Z,4.6
2018-05-07T08:17:08.534Z,8.3
2018-05-07T08:18:10.204Z,7.7
2018-05-07T08:19:11.868Z,3.8
2018-05-07T08:20:13.550Z,5.0
2018-05-07T08:21:15.225Z,4.0
2018-05-07T08:22:16.892Z,6.8
2018-05-07T08:23:27.073Z,6.7
2018-05-07T08:24:28.742Z,6.9
2018-05-07T08:25:30.409Z,6.2
2018-05-07T08:26:32.085Z,5.1
2018-05-07T08:27:33.760Z,4.7
2018-05-07T08:28:35.438Z,4.2
2018-05-07T08:29:37.100Z,4.9
2018-05-07T08:30:38.790Z,8.4
2018-05-07T08:31:40.462Z,9.1
2018-05-07T08:32:42.140Z,3.8
2018-05-07T08:33:43.803Z,4.4
2018-05-07T08:34:45.476Z,5.1
2018-05-07T08:35:47.187Z,4.9
2018-05-07T08:36:48.883Z,3.7
2018-05-07T08:37:50.520Z,4.1
2018-05-07T08:38:52.185Z,4.8
2018-05-07T08:39:53.863Z,3.3
2018-05-07T08:40:55.533Z,7.2
2018-05-07T08:41:57.204Z,8.3
2018-05-07T08:42:58.891Z,7.2
2018-05-07T08:44:00.564Z,4.9
2018-05-07T08:45:02.238Z,7.5
2018-05-07T08:46:03.913Z,4.0
2018-05-07T08:47:05.594Z,5.9
2018-05-07T08:48:07.314Z,5.6
2018-05-07T08:49:08.947Z,4.3
2018-05-07T08:50:10.630Z,4.9
2018-05-07T08:51:12.315Z,4.2
2018-05-07T08:52:13.965Z,6.6
2018-05-07T08:53:15.645Z,4.7
2018-05-07T08:54:17.325Z,5.1
2018-05-07T08:55:19.008Z,8.0
2018-05-07T08:56:20.671Z,4.7
2018-05-07T08:57:22.372Z,5.9
2018-05-07T08:58:24.044Z,6.2
2018-05-07T08:59:25.726Z,6.4
2018-05-07T09:00:27.401Z,6.8
2018-05-07T09:01:29.074Z,3.8
2018-05-07T09:02:30.750Z,7.9
2018-05-07T09:03:32.440Z,7.8
2018-05-07T09:04:34.119Z,5.6
2018-05-07T09:05:35.794Z,4.8
2018-05-07T09:06:37.473Z,4.0
2018-05-07T09:07:39.151Z,6.5
2018-05-07T09:08:40.820Z,5.8
2018-05-07T09:09:42.494Z,3.3
2018-05-07T09:10:44.169Z,5.9
2018-05-07T09:11:45.867Z,5.6
2018-05-07T09:12:47.570Z,3.3
2018-05-07T09:13:49.252Z,7.0
2018-05-07T09:14:50.926Z,4.9
2018-05-07T09:15:52.605Z,4.2
2018-05-07T09:16:54.282Z,4.5
2018-05-07T09:17:55.961Z,3.8
2018-05-07T09:18:57.637Z,7.8
2018-05-07T09:19:59.311Z,5.4
2018-05-07T09:21:01.007Z,6.1
2018-05-07T09:22:02.689Z,4.2
2018-05-07T09:23:04.359Z,5.0
2018-05-07T09:24:06.036Z,5.9
2018-05-07T09:25:07.736Z,6.7
2018-05-07T09:26:09.409Z,4.8
2018-05-07T09:27:11.096Z,5.9
2018-05-07T09:28:12.769Z,6.5
2018-05-07T09:29:14.507Z,6.7
2018-05-07T09:30:16.191Z,5.8
2018-05-07T09:31:17.864Z,3.8
2018-05-07T09:32:19.561Z,6.1
2018-05-07T09:33:21.239Z,9.3
2018-05-07T09:34:22.912Z,4.5
2018-05-07T09:35:24.591Z,9.0
2018-05-07T09:36:26.275Z,5.2
2018-05-07T09:37:27.944Z,2.6
2018-05-07T09:38:29.634Z,4.3
2018-05-07T09:39:31.304Z,7.6
2018-05-07T09:40:33.591Z,4.6
2018-05-07T09:41:35.180Z,7.2
2018-05-07T09:42:36.887Z,4.4
2018-05-07T09:43:38.557Z,5.8
2018-05-07T09:44:40.202Z,3.3
2018-05-07T09:45:41.881Z,3.8
2018-05-07T09:46:43.566Z,5.4
2018-05-07T09:47:45.251Z,3.6
2018-05-07T09:48:46.913Z,3.1
2018-05-07T09:49:48.593Z,6.6
2018-05-07T09:50:50.269Z,4.8
2018-05-07T09:51:51.946Z,4.0
2018-05-07T09:52:53.615Z,4.8
2018-05-07T09:53:55.294Z,4.9
2018-05-07T09:54:56.973Z,6.0
2018-05-07T10:01:15.040Z,2.2
2018-05-07T10:02:16.718Z,3.7
2018-05-07T10:03:18.394Z,5.3
2018-05-07T10:04:20.077Z,3.5
2018-05-07T10:05:21.752Z,4.6
2018-05-07T10:06:23.486Z,3.6
2018-05-07T10:07:25.175Z,6.1
2018-05-07T10:08:26.870Z,4.5
2018-05-07T10:09:28.546Z,4.5
2018-05-07T10:10:30.222Z,4.3
2018-05-07T10:11:31.934Z,6.1
2018-05-07T10:12:33.606Z,3.7
2018-05-07T10:13:35.275Z,4.1
2018-05-07T10:14:36.942Z,3.6
2018-05-07T10:15:38.621Z,3.1
2018-05-07T10:16:40.291Z,4.4
2018-05-07T10:17:41.973Z,4.3
2018-05-07T10:18:43.657Z,4.2
2018-05-07T10:19:45.342Z,3.6
2018-05-07T10:20:47.047Z,3.5
2018-05-07T10:21:48.720Z,2.7
2018-05-07T10:22:50.395Z,4.9
2018-05-07T10:23:52.075Z,5.1
2018-05-07T10:24:53.743Z,5.5
2018-05-07T10:25:55.429Z,3.9
2018-05-07T10:26:57.115Z,4.6
2018-05-07T10:27:58.785Z,5.7
2018-05-07T10:29:00.465Z,4.9
2018-05-07T10:30:02.148Z,6.1
2018-05-07T10:31:03.823Z,5.2
2018-05-07T10:32:05.506Z,3.7
2018-05-07T10:33:07.172Z,4.4
2018-05-07T10:34:08.867Z,4.6
2018-05-07T10:35:10.555Z,6.5
2018-05-07T10:36:12.239Z,3.7
2018-05-07T10:37:13.921Z,6.2
2018-05-07T10:38:15.603Z,4.3
2018-05-07T10:39:17.280Z,3.1
2018-05-07T10:40:18.970Z,4.7
2018-05-07T10:41:20.652Z,5.3
2018-05-07T10:42:22.324Z,2.6
2018-05-07T10:43:24.005Z,5.2
2018-05-07T10:44:25.728Z,3.5
2018-05-07T10:45:27.412Z,5.1
2018-05-07T10:46:29.085Z,5.9
2018-05-07T10:47:30.767Z,3.6
2018-05-07T10:48:32.444Z,4.6
2018-05-07T10:49:34.128Z,10.6
2018-05-07T10:50:35.799Z,3.7
2018-05-07T10:51:37.488Z,3.3
2018-05-07T10:52:39.199Z,4.1
2018-05-07T10:53:40.839Z,3.9
2018-05-07T10:54:42.535Z,3.3
2018-05-07T10:55:44.215Z,6.6
2018-05-07T10:56:45.893Z,3.1
2018-05-07T10:57:47.611Z,2.9
2018-05-07T10:58:49.287Z,4.1
2018-05-07T10:59:50.968Z,2.8
2018-05-07T11:00:52.643Z,4.8
2018-05-07T11:01:54.331Z,3.2
2018-05-07T11:02:56.023Z,4.4
2018-05-07T11:03:57.714Z,7.3
2018-05-07T11:04:59.385Z,2.9
2018-05-07T11:06:01.073Z,1.8
2018-05-07T11:07:02.751Z,4.8
2018-05-07T11:08:04.435Z,3.2
2018-05-07T11:09:06.104Z,3.1
2018-05-07T11:10:07.788Z,7.5
2018-05-07T11:11:09.462Z,5.0
2018-05-07T11:12:11.145Z,3.5
2018-05-07T11:13:12.827Z,4.7
2018-05-07T11:14:14.494Z,4.2
2018-05-07T11:15:16.174Z,4.0
2018-05-07T11:16:17.853Z,5.2
2018-05-07T11:17:19.538Z,2.8
2018-05-07T11:18:21.241Z,3.7
2018-05-07T11:19:22.918Z,4.9
2018-05-07T11:20:24.595Z,3.3
2018-05-07T11:21:26.285Z,4.6
2018-05-07T11:22:27.964Z,3.9
2018-05-07T11:23:29.642Z,3.1
2018-05-07T11:24:31.325Z,3.6
2018-05-07T11:25:33.003Z,4.3
2018-05-07T11:26:34.694Z,3.8
2018-05-07T11:27:36.362Z,5.0
2018-05-07T11:28:38.038Z,2.8
2018-05-07T11:29:39.720Z,5.5
2018-05-07T11:30:41.405Z,5.2
2018-05-07T11:31:43.079Z,3.0
2018-05-07T11:32:44.760Z,3.6
2018-05-07T11:33:48.407Z,3.1
2018-05-07T11:34:50.087Z,3.9
2018-05-07T11:35:51.766Z,4.9
2018-05-07T11:36:53.473Z,4.3
2018-05-07T11:37:55.102Z,5.2
2018-05-07T11:38:56.782Z,5.7
2018-05-07T11:39:58.468Z,2.4
2018-05-07T11:41:00.160Z,3.6
2018-05-07T11:42:01.796Z,5.4
2018-05-07T11:43:03.471Z,3.3
2018-05-07T11:44:05.144Z,2.5
2018-05-07T11:45:06.812Z,4.8
2018-05-07T11:46:08.510Z,5.4
2018-05-07T11:47:10.189Z,3.4
2018-05-07T11:48:11.929Z,4.2
2018-05-07T11:49:13.617Z,3.4
2018-05-07T11:50:15.297Z,4.7
2018-05-07T11:51:16.967Z,4.5
2018-05-07T11:52:18.648Z,4.4
2018-05-07T11:53:20.366Z,4.2
2018-05-07T11:54:22.007Z,3.1
2018-05-07T11:55:23.692Z,2.9
2018-05-07T11:56:25.384Z,3.7
2018-05-07T11:57:27.058Z,4.0
2018-05-07T11:58:28.730Z,4.9
2018-05-07T11:59:30.422Z,4.5
2018-05-07T12:00:32.092Z,4.9
2018-05-07T12:01:33.771Z,3.9
2018-05-07T12:02:35.521Z,3.0
2018-05-07T12:03:37.160Z,4.2
2018-05-07T12:04:38.842Z,5.7
2018-05-07T12:05:40.607Z,4.9
2018-05-07T12:06:42.222Z,4.6
2018-05-07T12:07:43.917Z,3.9
2018-05-07T12:08:45.706Z,4.4
2018-05-07T12:09:47.413Z,3.7
2018-05-07T12:10:49.101Z,3.7
2018-05-07T12:11:50.773Z,5.1
2018-05-07T12:12:52.439Z,4.8
2018-05-07T12:13:54.865Z,3.8
2018-05-07T12:14:56.558Z,3.5
2018-05-07T12:15:58.290Z,3.9
2018-05-07T12:16:59.889Z,4.9
2018-05-07T12:18:01.583Z,5.0
2018-05-07T12:19:03.260Z,4.7
2018-05-07T12:20:04.944Z,4.8
2018-05-07T12:21:06.652Z,3.4
2018-05-07T12:22:08.331Z,4.0
2018-05-07T12:23:10.003Z,3.4
2018-05-07T12:24:11.689Z,5.3
2018-05-07T12:25:13.362Z,2.7
2018-05-07T12:26:15.040Z,2.7
2018-05-07T12:27:16.714Z,4.2
2018-05-07T12:28:18.399Z,3.2
2018-05-07T12:29:20.076Z,5.1
2018-05-07T12:30:21.749Z,3.0
2018-05-07T12:31:23.622Z,4.2
2018-05-07T12:32:25.138Z,3.8
2018-05-07T12:33:26.805Z,3.3
2018-05-07T12:34:28.497Z,4.5
2018-05-07T12:35:30.176Z,3.1
2018-05-07T12:36:31.856Z,5.7
2018-05-07T12:37:33.542Z,3.1
2018-05-07T12:38:35.217Z,4.6
2018-05-07T12:39:36.931Z,2.9
2018-05-07T12:40:38.609Z,3.9
2018-05-07T12:41:40.283Z,3.6
2018-05-07T12:42:41.974Z,2.1
2018-05-07T12:43:43.654Z,6.6
2018-05-07T12:44:45.333Z,5.2
2018-05-07T12:45:47.030Z,2.3
2018-05-07T12:46:48.759Z,3.4
2018-05-07T12:47:50.406Z,2.5
2018-05-07T12:48:52.079Z,4.2
2018-05-07T12:49:53.755Z,5.8
2018-05-07T12:50:55.442Z,3.9
2018-05-07T12:51:57.115Z,2.9
2018-05-07T12:52:58.793Z,6.0
2018-05-07T12:54:00.484Z,6.7
2018-05-07T12:55:02.166Z,3.2
2018-05-07T12:56:03.854Z,3.5
2018-05-07T12:57:05.538Z,4.4
2018-05-07T12:58:07.214Z,2.9
2018-05-07T12:59:08.898Z,4.7
2018-05-07T13:00:10.577Z,3.5
2018-05-07T13:01:12.256Z,3.9
2018-05-07T13:02:13.963Z,5.6
2018-05-07T13:03:15.652Z,5.2
2018-05-07T13:04:17.326Z,6.1
2018-05-07T13:05:19.009Z,5.0
2018-05-07T13:06:20.686Z,5.8
2018-05-07T13:07:22.356Z,6.3
2018-05-07T13:08:24.044Z,4.3
2018-05-07T13:09:25.718Z,4.3
2018-05-07T13:10:27.387Z,3.2
2018-05-07T13:11:29.076Z,3.5
2018-05-07T13:12:30.714Z,3.2
2018-05-07T13:13:32.470Z,3.1
2018-05-07T13:14:34.148Z,3.5
2018-05-07T13:15:35.831Z,4.7
2018-05-07T13:16:37.499Z,7.3
2018-05-07T13:17:39.189Z,3.2
2018-05-07T13:18:40.869Z,4.9
2018-05-07T13:19:43.043Z,4.7
2018-05-07T13:20:44.736Z,5.0
2018-05-07T13:21:46.411Z,3.1
2018-05-07T13:22:48.103Z,4.8
2018-05-07T13:23:49.788Z,3.9
2018-05-07T13:24:51.520Z,5.1
2018-05-07T13:25:53.177Z,3.9
2018-05-07T13:26:54.852Z,4.7
2018-05-07T13:27:56.532Z,3.9
2018-05-07T13:28:58.261Z,4.9
2018-05-07T13:29:59.934Z,4.3
2018-05-07T13:31:01.636Z,3.2
2018-05-07T13:32:03.312Z,5.4
2018-05-07T13:33:04.994Z,7.1
2018-05-07T13:34:06.663Z,5.3
2018-05-07T13:35:08.359Z,4.4
2018-05-07T13:36:10.032Z,4.5
2018-05-07T13:37:11.704Z,3.4
2018-05-07T13:38:13.387Z,3.3
2018-05-07T13:39:15.079Z,2.9
2018-05-07T13:40:16.760Z,4.9
2018-05-07T13:41:18.455Z,3.1
2018-05-07T13:42:20.139Z,6.1
2018-05-07T13:43:21.814Z,3.6
2018-05-07T13:44:23.487Z,2.6
2018-05-07T13:45:25.174Z,3.4
2018-05-07T13:46:26.844Z,2.5
2018-05-07T13:47:28.526Z,6.3
2018-05-07T13:48:30.205Z,4.0
2018-05-07T13:49:31.897Z,4.3
2018-05-07T13:50:33.597Z,2.8
2018-05-07T13:51:35.286Z,6.8
2018-05-07T13:52:36.964Z,5.2
2018-05-07T13:53:38.639Z,2.8
2018-05-07T13:54:40.312Z,4.5
2018-05-07T13:55:41.981Z,2.7
2018-05-07T14:02:03.707Z,2.8
2018-05-07T14:03:05.394Z,2.9
2018-05-07T14:04:07.069Z,4.2
2018-05-07T14:05:08.771Z,7.4
2018-05-07T14:06:10.452Z,4.8
2018-05-07T14:07:12.120Z,5.9
2018-05-07T14:08:13.813Z,6.0
2018-05-07T14:09:15.509Z,4.1
2018-05-07T14:10:17.186Z,5.4
2018-05-07T14:11:18.864Z,3.5
2018-05-07T14:12:20.543Z,3.2
2018-05-07T14:13:22.211Z,8.4
2018-05-07T14:14:23.885Z,4.9
2018-05-07T14:15:25.655Z,4.8
2018-05-07T14:16:27.322Z,4.6
2018-05-07T14:17:28.993Z,6.6
2018-05-07T14:18:30.676Z,2.1
2018-05-07T14:19:32.361Z,4.2
2018-05-07T14:20:34.041Z,3.9
2018-05-07T14:21:35.710Z,3.9
2018-05-07T14:22:37.409Z,2.8
2018-05-07T14:23:39.094Z,4.7
2018-05-07T14:24:40.762Z,4.1
2018-05-07T14:25:42.487Z,4.1
2018-05-07T14:26:44.126Z,5.3
2018-05-07T14:27:45.809Z,3.8
2018-05-07T14:28:47.507Z,8.8
2018-05-07T14:29:49.193Z,3.6